sensor_id;sensor_type;location;lat;lon;timestamp;temperature;humidity
25973;DHT22;13765;51.166;4.466;2022-08-19T00:01:44;20.40;99.90
25973;DHT22;13765;51.166;4.466;2022-08-19T00:04:14;20.40;99.90
25973;DHT22;13765;51.166;4.466;2022-08-19T00:06:43;20.40;99.90
25973;DHT22;13765;51.166;4.466;2022-08-19T00:09:16;20.50;99.90
25973;DHT22;13765;51.166;4.466;2022-08-19T00:11:45;20.50;99.90
25973;DHT22;13765;51.166;4.466;2022-08-19T00:14:13;20.60;99.90
25973;DHT22;13765;51.166;4.466;2022-08-19T00:16:39;20.50;99.90
25973;DHT22;13765;51.166;4.466;2022-08-19T00:19:07;20.50;99.90
25973;DHT22;13765;51.166;4.466;2022-08-19T00:21:38;20.50;99.90
25973;DHT22;13765;51.166;4.466;2022-08-19T00:24:08;20.50;99.90
25973;DHT22;13765;51.166;4.466;2022-08-19T00:26:36;20.60;99.90
25973;DHT22;13765;51.166;4.466;2022-08-19T00:29:02;20.50;99.90
25973;DHT22;13765;51.166;4.466;2022-08-19T00:31:31;20.40;99.90
25973;DHT22;13765;51.166;4.466;2022-08-19T00:33:57;20.30;99.90
25973;DHT22;13765;51.166;4.466;2022-08-19T00:36:23;20.30;99.90
25973;DHT22;13765;51.166;4.466;2022-08-19T00:38:49;20.30;99.90
25973;DHT22;13765;51.166;4.466;2022-08-19T00:41:19;20.40;99.90
25973;DHT22;13765;51.166;4.466;2022-08-19T00:44:19;20.40;99.90
25973;DHT22;13765;51.166;4.466;2022-08-19T00:46:49;20.30;99.90
25973;DHT22;13765;51.166;4.466;2022-08-19T00:49:22;20.30;99.90
25973;DHT22;13765;51.166;4.466;2022-08-19T00:51:52;20.20;99.90
25973;DHT22;13765;51.166;4.466;2022-08-19T00:54:19;20.20;99.90
25973;DHT22;13765;51.166;4.466;2022-08-19T00:56:46;20.20;99.90
25973;DHT22;13765;51.166;4.466;2022-08-19T00:59:14;20.10;99.90
25973;DHT22;13765;51.166;4.466;2022-08-19T01:01:43;20.10;99.90
25973;DHT22;13765;51.166;4.466;2022-08-19T01:04:13;20.10;99.90
25973;DHT22;13765;51.166;4.466;2022-08-19T01:06:40;20.10;99.90
25973;DHT22;13765;51.166;4.466;2022-08-19T01:09:09;20.00;99.90
25973;DHT22;13765;51.166;4.466;2022-08-19T01:11:40;20.00;99.90
25973;DHT22;13765;51.166;4.466;2022-08-19T01:14:07;20.00;99.90
25973;DHT22;13765;51.166;4.466;2022-08-19T01:16:37;19.90;99.90
25973;DHT22;13765;51.166;4.466;2022-08-19T01:19:18;19.80;99.90
25973;DHT22;13765;51.166;4.466;2022-08-19T01:21:58;19.80;99.90
25973;DHT22;13765;51.166;4.466;2022-08-19T01:24:26;19.70;99.90
25973;DHT22;13765;51.166;4.466;2022-08-19T01:26:53;19.60;99.90
25973;DHT22;13765;51.166;4.466;2022-08-19T01:29:19;19.70;99.90
25973;DHT22;13765;51.166;4.466;2022-08-19T01:31:44;19.50;99.90
25973;DHT22;13765;51.166;4.466;2022-08-19T01:34:10;19.50;99.90
25973;DHT22;13765;51.166;4.466;2022-08-19T01:36:42;19.50;99.90
25973;DHT22;13765;51.166;4.466;2022-08-19T01:39:17;19.40;99.90
25973;DHT22;13765;51.166;4.466;2022-08-19T01:41:47;19.50;99.90
25973;DHT22;13765;51.166;4.466;2022-08-19T01:44:14;19.40;99.90
25973;DHT22;13765;51.166;4.466;2022-08-19T01:46:47;19.40;99.90
25973;DHT22;13765;51.166;4.466;2022-08-19T01:49:14;19.40;99.90
25973;DHT22;13765;51.166;4.466;2022-08-19T01:51:40;19.40;99.90
25973;DHT22;13765;51.166;4.466;2022-08-19T01:54:09;19.40;99.90
25973;DHT22;13765;51.166;4.466;2022-08-19T01:56:37;19.40;99.90
25973;DHT22;13765;51.166;4.466;2022-08-19T01:59:08;19.30;99.90
25973;DHT22;13765;51.166;4.466;2022-08-19T02:01:35;19.30;99.90
25973;DHT22;13765;51.166;4.466;2022-08-19T02:04:04;19.40;99.90
25973;DHT22;13765;51.166;4.466;2022-08-19T02:06:33;19.30;99.90
25973;DHT22;13765;51.166;4.466;2022-08-19T02:09:00;19.20;99.90
25973;DHT22;13765;51.166;4.466;2022-08-19T02:11:35;19.20;99.90
25973;DHT22;13765;51.166;4.466;2022-08-19T02:14:08;19.20;99.90
25973;DHT22;13765;51.166;4.466;2022-08-19T02:16:36;19.10;99.90
25973;DHT22;13765;51.166;4.466;2022-08-19T02:19:06;19.10;99.90
25973;DHT22;13765;51.166;4.466;2022-08-19T02:21:32;19.10;99.90
25973;DHT22;13765;51.166;4.466;2022-08-19T02:24:00;19.10;99.90
25973;DHT22;13765;51.166;4.466;2022-08-19T02:26:26;19.10;99.90
25973;DHT22;13765;51.166;4.466;2022-08-19T02:28:53;19.10;99.90
25973;DHT22;13765;51.166;4.466;2022-08-19T02:31:25;19.00;99.90
25973;DHT22;13765;51.166;4.466;2022-08-19T02:33:52;19.00;99.90
25973;DHT22;13765;51.166;4.466;2022-08-19T02:36:18;19.10;99.90
25973;DHT22;13765;51.166;4.466;2022-08-19T02:38:47;19.10;99.90
25973;DHT22;13765;51.166;4.466;2022-08-19T02:41:16;19.10;99.90
25973;DHT22;13765;51.166;4.466;2022-08-19T02:43:45;19.10;99.90
25973;DHT22;13765;51.166;4.466;2022-08-19T02:46:21;19.00;99.90
25973;DHT22;13765;51.166;4.466;2022-08-19T02:48:51;18.90;99.90
25973;DHT22;13765;51.166;4.466;2022-08-19T02:51:21;18.90;99.90
25973;DHT22;13765;51.166;4.466;2022-08-19T02:53:47;18.90;99.90
25973;DHT22;13765;51.166;4.466;2022-08-19T02:56:15;18.90;99.90
25973;DHT22;13765;51.166;4.466;2022-08-19T02:58:41;18.80;99.90
25973;DHT22;13765;51.166;4.466;2022-08-19T03:01:13;18.90;99.90
25973;DHT22;13765;51.166;4.466;2022-08-19T03:03:44;18.80;99.90
25973;DHT22;13765;51.166;4.466;2022-08-19T03:06:15;18.80;99.90
25973;DHT22;13765;51.166;4.466;2022-08-19T03:08:43;18.80;99.90
25973;DHT22;13765;51.166;4.466;2022-08-19T03:13:46;18.70;99.90
25973;DHT22;13765;51.166;4.466;2022-08-19T03:16:17;18.70;99.90
25973;DHT22;13765;51.166;4.466;2022-08-19T03:18:46;18.70;99.90
25973;DHT22;13765;51.166;4.466;2022-08-19T03:21:17;18.70;99.90
25973;DHT22;13765;51.166;4.466;2022-08-19T03:23:43;18.70;99.90
25973;DHT22;13765;51.166;4.466;2022-08-19T03:26:09;18.60;99.90
25973;DHT22;13765;51.166;4.466;2022-08-19T03:28:38;18.50;99.90
25973;DHT22;13765;51.166;4.466;2022-08-19T03:31:11;18.60;99.90
25973;DHT22;13765;51.166;4.466;2022-08-19T03:33:40;18.60;99.90
25973;DHT22;13765;51.166;4.466;2022-08-19T03:36:14;18.40;99.90
25973;DHT22;13765;51.166;4.466;2022-08-19T03:38:45;18.40;99.90
25973;DHT22;13765;51.166;4.466;2022-08-19T03:41:16;18.30;99.90
25973;DHT22;13765;51.166;4.466;2022-08-19T03:43:47;18.40;99.90
25973;DHT22;13765;51.166;4.466;2022-08-19T03:46:20;18.40;99.90
25973;DHT22;13765;51.166;4.466;2022-08-19T03:48:53;18.40;99.90
25973;DHT22;13765;51.166;4.466;2022-08-19T03:51:29;18.20;99.90
25973;DHT22;13765;51.166;4.466;2022-08-19T03:54:00;18.30;99.90
25973;DHT22;13765;51.166;4.466;2022-08-19T03:56:28;18.20;99.90
25973;DHT22;13765;51.166;4.466;2022-08-19T03:58:58;18.20;99.90
25973;DHT22;13765;51.166;4.466;2022-08-19T04:01:30;18.20;99.90
25973;DHT22;13765;51.166;4.466;2022-08-19T04:03:58;18.30;99.90
25973;DHT22;13765;51.166;4.466;2022-08-19T04:06:30;18.20;99.90
25973;DHT22;13765;51.166;4.466;2022-08-19T04:08:57;18.20;99.90
25973;DHT22;13765;51.166;4.466;2022-08-19T04:11:30;18.10;99.90
25973;DHT22;13765;51.166;4.466;2022-08-19T04:13:58;18.00;99.90
25973;DHT22;13765;51.166;4.466;2022-08-19T04:16:28;18.10;99.90
25973;DHT22;13765;51.166;4.466;2022-08-19T04:18:59;18.00;99.90
25973;DHT22;13765;51.166;4.466;2022-08-19T04:21:29;17.80;99.90
25973;DHT22;13765;51.166;4.466;2022-08-19T04:23:56;17.80;99.90
25973;DHT22;13765;51.166;4.466;2022-08-19T04:26:27;17.80;99.90
25973;DHT22;13765;51.166;4.466;2022-08-19T04:28:54;17.80;99.90
25973;DHT22;13765;51.166;4.466;2022-08-19T04:31:24;17.70;99.90
25973;DHT22;13765;51.166;4.466;2022-08-19T04:33:57;17.70;99.90
25973;DHT22;13765;51.166;4.466;2022-08-19T04:36:28;17.80;99.90
25973;DHT22;13765;51.166;4.466;2022-08-19T04:38:56;17.80;99.90
25973;DHT22;13765;51.166;4.466;2022-08-19T04:41:23;17.80;99.90
25973;DHT22;13765;51.166;4.466;2022-08-19T04:44:08;17.80;99.90
25973;DHT22;13765;51.166;4.466;2022-08-19T04:46:34;17.80;99.90
25973;DHT22;13765;51.166;4.466;2022-08-19T04:49:06;17.90;99.90
25973;DHT22;13765;51.166;4.466;2022-08-19T04:51:39;17.90;99.90
25973;DHT22;13765;51.166;4.466;2022-08-19T04:54:05;17.80;99.90
25973;DHT22;13765;51.166;4.466;2022-08-19T04:56:33;17.80;99.90
25973;DHT22;13765;51.166;4.466;2022-08-19T04:58:59;17.90;99.90
25973;DHT22;13765;51.166;4.466;2022-08-19T05:01:30;17.90;99.90
25973;DHT22;13765;51.166;4.466;2022-08-19T05:04:00;17.90;99.90
25973;DHT22;13765;51.166;4.466;2022-08-19T05:06:27;17.80;99.90
25973;DHT22;13765;51.166;4.466;2022-08-19T05:08:56;17.90;99.90
25973;DHT22;13765;51.166;4.466;2022-08-19T05:11:26;17.90;99.90
25973;DHT22;13765;51.166;4.466;2022-08-19T05:13:56;17.90;99.90
25973;DHT22;13765;51.166;4.466;2022-08-19T05:16:25;18.00;99.90
25973;DHT22;13765;51.166;4.466;2022-08-19T05:18:52;18.00;99.90
25973;DHT22;13765;51.166;4.466;2022-08-19T05:21:38;18.10;99.90
25973;DHT22;13765;51.166;4.466;2022-08-19T05:24:23;18.10;99.90
25973;DHT22;13765;51.166;4.466;2022-08-19T05:26:53;18.30;99.90
25973;DHT22;13765;51.166;4.466;2022-08-19T05:29:23;18.40;99.90
25973;DHT22;13765;51.166;4.466;2022-08-19T05:31:53;18.50;99.90
25973;DHT22;13765;51.166;4.466;2022-08-19T05:34:21;18.40;99.90
25973;DHT22;13765;51.166;4.466;2022-08-19T05:36:50;18.40;99.90
25973;DHT22;13765;51.166;4.466;2022-08-19T05:39:23;18.50;99.90
25973;DHT22;13765;51.166;4.466;2022-08-19T05:41:53;18.60;99.90
25973;DHT22;13765;51.166;4.466;2022-08-19T05:44:20;18.50;99.90
25973;DHT22;13765;51.166;4.466;2022-08-19T05:46:47;18.70;99.90
25973;DHT22;13765;51.166;4.466;2022-08-19T05:49:15;18.90;99.90
25973;DHT22;13765;51.166;4.466;2022-08-19T05:51:42;19.50;99.90
25973;DHT22;13765;51.166;4.466;2022-08-19T05:54:08;20.10;99.90
25973;DHT22;13765;51.166;4.466;2022-08-19T05:56:34;20.60;99.90
25973;DHT22;13765;51.166;4.466;2022-08-19T05:59:08;21.20;99.90
25973;DHT22;13765;51.166;4.466;2022-08-19T06:01:42;21.70;99.90
25973;DHT22;13765;51.166;4.466;2022-08-19T06:04:14;21.60;99.90
25973;DHT22;13765;51.166;4.466;2022-08-19T06:06:48;21.40;99.90
25973;DHT22;13765;51.166;4.466;2022-08-19T06:09:17;21.10;99.90
25973;DHT22;13765;51.166;4.466;2022-08-19T06:11:51;20.70;99.90
25973;DHT22;13765;51.166;4.466;2022-08-19T06:14:30;20.40;99.90
25973;DHT22;13765;51.166;4.466;2022-08-19T06:17:00;20.20;99.90
25973;DHT22;13765;51.166;4.466;2022-08-19T06:19:29;20.00;99.90
25973;DHT22;13765;51.166;4.466;2022-08-19T06:22:02;20.00;99.90
25973;DHT22;13765;51.166;4.466;2022-08-19T06:24:29;20.10;99.90
25973;DHT22;13765;51.166;4.466;2022-08-19T06:26:59;20.20;99.90
25973;DHT22;13765;51.166;4.466;2022-08-19T06:29:26;20.10;99.90
25973;DHT22;13765;51.166;4.466;2022-08-19T06:31:55;20.00;99.90
25973;DHT22;13765;51.166;4.466;2022-08-19T06:34:21;19.90;99.90
25973;DHT22;13765;51.166;4.466;2022-08-19T06:36:51;19.70;99.90
25973;DHT22;13765;51.166;4.466;2022-08-19T06:39:24;19.60;99.90
25973;DHT22;13765;51.166;4.466;2022-08-19T06:41:55;19.60;99.90
25973;DHT22;13765;51.166;4.466;2022-08-19T06:44:24;19.60;99.90
25973;DHT22;13765;51.166;4.466;2022-08-19T06:46:51;19.60;99.90
25973;DHT22;13765;51.166;4.466;2022-08-19T06:49:18;19.50;99.90
25973;DHT22;13765;51.166;4.466;2022-08-19T06:51:47;19.60;99.90
25973;DHT22;13765;51.166;4.466;2022-08-19T06:54:19;19.60;99.90
25973;DHT22;13765;51.166;4.466;2022-08-19T06:56:45;19.80;99.90
25973;DHT22;13765;51.166;4.466;2022-08-19T06:59:18;19.70;99.90
25973;DHT22;13765;51.166;4.466;2022-08-19T07:01:48;19.80;99.90
25973;DHT22;13765;51.166;4.466;2022-08-19T07:04:16;19.80;99.90
25973;DHT22;13765;51.166;4.466;2022-08-19T07:06:43;19.80;99.90
25973;DHT22;13765;51.166;4.466;2022-08-19T07:09:14;19.90;99.90
25973;DHT22;13765;51.166;4.466;2022-08-19T07:11:52;20.00;99.90
25973;DHT22;13765;51.166;4.466;2022-08-19T07:14:21;20.10;99.90
25973;DHT22;13765;51.166;4.466;2022-08-19T07:16:49;20.20;99.90
25973;DHT22;13765;51.166;4.466;2022-08-19T07:19:16;20.30;99.90
25973;DHT22;13765;51.166;4.466;2022-08-19T07:21:42;20.30;99.90
25973;DHT22;13765;51.166;4.466;2022-08-19T07:24:08;20.30;99.90
25973;DHT22;13765;51.166;4.466;2022-08-19T07:26:39;20.10;99.90
25973;DHT22;13765;51.166;4.466;2022-08-19T07:29:06;20.20;99.90
25973;DHT22;13765;51.166;4.466;2022-08-19T07:31:34;20.10;99.90
25973;DHT22;13765;51.166;4.466;2022-08-19T07:34:05;20.30;99.90
25973;DHT22;13765;51.166;4.466;2022-08-19T07:36:38;20.20;99.90
25973;DHT22;13765;51.166;4.466;2022-08-19T07:39:14;20.30;99.90
25973;DHT22;13765;51.166;4.466;2022-08-19T07:41:46;20.40;99.90
25973;DHT22;13765;51.166;4.466;2022-08-19T07:44:13;20.50;99.90
25973;DHT22;13765;51.166;4.466;2022-08-19T07:46:43;20.60;99.90
25973;DHT22;13765;51.166;4.466;2022-08-19T07:49:10;20.60;99.90
25973;DHT22;13765;51.166;4.466;2022-08-19T07:51:40;20.70;99.90
25973;DHT22;13765;51.166;4.466;2022-08-19T07:54:07;20.70;99.90
25973;DHT22;13765;51.166;4.466;2022-08-19T07:56:37;20.90;99.90
25973;DHT22;13765;51.166;4.466;2022-08-19T07:59:02;20.90;99.90
25973;DHT22;13765;51.166;4.466;2022-08-19T08:01:31;21.20;99.90
25973;DHT22;13765;51.166;4.466;2022-08-19T08:03:58;21.40;99.90
25973;DHT22;13765;51.166;4.466;2022-08-19T08:06:45;21.40;99.90
25973;DHT22;13765;51.166;4.466;2022-08-19T08:09:34;21.30;99.90
25973;DHT22;13765;51.166;4.466;2022-08-19T08:12:04;21.40;99.90
25973;DHT22;13765;51.166;4.466;2022-08-19T08:14:38;21.40;99.90
25973;DHT22;13765;51.166;4.466;2022-08-19T08:17:05;21.50;99.90
25973;DHT22;13765;51.166;4.466;2022-08-19T08:19:32;21.70;99.90
25973;DHT22;13765;51.166;4.466;2022-08-19T08:21:59;21.90;99.90
25973;DHT22;13765;51.166;4.466;2022-08-19T08:24:31;21.90;99.90
25973;DHT22;13765;51.166;4.466;2022-08-19T08:26:58;22.10;99.90
25973;DHT22;13765;51.166;4.466;2022-08-19T08:29:25;22.30;99.90
25973;DHT22;13765;51.166;4.466;2022-08-19T08:31:54;22.50;99.90
25973;DHT22;13765;51.166;4.466;2022-08-19T08:34:23;22.30;99.90
25973;DHT22;13765;51.166;4.466;2022-08-19T08:36:52;22.40;99.90
25973;DHT22;13765;51.166;4.466;2022-08-19T08:39:20;22.60;99.90
25973;DHT22;13765;51.166;4.466;2022-08-19T08:44:43;22.80;99.90
25973;DHT22;13765;51.166;4.466;2022-08-19T08:47:18;22.70;99.90
25973;DHT22;13765;51.166;4.466;2022-08-19T08:49:52;22.90;99.90
25973;DHT22;13765;51.166;4.466;2022-08-19T08:52:27;23.30;99.90
25973;DHT22;13765;51.166;4.466;2022-08-19T08:54:57;23.40;99.90
25973;DHT22;13765;51.166;4.466;2022-08-19T08:57:35;23.20;99.90
25973;DHT22;13765;51.166;4.466;2022-08-19T09:00:07;23.10;99.90
25973;DHT22;13765;51.166;4.466;2022-08-19T09:02:33;23.10;99.90
25973;DHT22;13765;51.166;4.466;2022-08-19T09:05:00;23.10;99.90
25973;DHT22;13765;51.166;4.466;2022-08-19T09:10:10;22.80;99.90
25973;DHT22;13765;51.166;4.466;2022-08-19T09:15:44;22.70;99.90
25973;DHT22;13765;51.166;4.466;2022-08-19T09:18:11;22.60;99.90
25973;DHT22;13765;51.166;4.466;2022-08-19T09:20:42;22.60;99.90
25973;DHT22;13765;51.166;4.466;2022-08-19T09:23:10;22.50;99.90
25973;DHT22;13765;51.166;4.466;2022-08-19T09:25:36;22.50;99.90
25973;DHT22;13765;51.166;4.466;2022-08-19T09:28:03;22.50;99.90
25973;DHT22;13765;51.166;4.466;2022-08-19T09:30:32;22.60;99.90
25973;DHT22;13765;51.166;4.466;2022-08-19T09:32:58;22.60;99.90
25973;DHT22;13765;51.166;4.466;2022-08-19T09:35:26;22.70;99.90
25973;DHT22;13765;51.166;4.466;2022-08-19T09:37:54;22.60;99.90
25973;DHT22;13765;51.166;4.466;2022-08-19T09:40:21;22.70;99.90
25973;DHT22;13765;51.166;4.466;2022-08-19T09:42:47;22.80;99.90
25973;DHT22;13765;51.166;4.466;2022-08-19T09:45:17;22.80;99.90
25973;DHT22;13765;51.166;4.466;2022-08-19T09:47:46;22.80;99.90
25973;DHT22;13765;51.166;4.466;2022-08-19T09:50:14;22.80;99.90
25973;DHT22;13765;51.166;4.466;2022-08-19T09:52:40;22.80;99.90
25973;DHT22;13765;51.166;4.466;2022-08-19T09:55:09;22.90;99.90
25973;DHT22;13765;51.166;4.466;2022-08-19T09:57:40;23.10;99.90
25973;DHT22;13765;51.166;4.466;2022-08-19T10:00:09;23.20;99.90
25973;DHT22;13765;51.166;4.466;2022-08-19T10:02:35;23.60;99.90
25973;DHT22;13765;51.166;4.466;2022-08-19T10:05:05;23.60;99.90
25973;DHT22;13765;51.166;4.466;2022-08-19T10:07:49;23.60;99.90
25973;DHT22;13765;51.166;4.466;2022-08-19T10:10:15;23.40;99.90
25973;DHT22;13765;51.166;4.466;2022-08-19T10:12:42;23.40;99.90
25973;DHT22;13765;51.166;4.466;2022-08-19T10:15:12;23.50;99.90
25973;DHT22;13765;51.166;4.466;2022-08-19T10:17:41;23.50;99.90
25973;DHT22;13765;51.166;4.466;2022-08-19T10:20:09;23.50;99.90
25973;DHT22;13765;51.166;4.466;2022-08-19T10:22:40;23.40;99.90
25973;DHT22;13765;51.166;4.466;2022-08-19T10:25:07;23.40;99.90
25973;DHT22;13765;51.166;4.466;2022-08-19T10:27:36;23.10;99.90
25973;DHT22;13765;51.166;4.466;2022-08-19T10:30:03;22.90;99.90
25973;DHT22;13765;51.166;4.466;2022-08-19T10:32:29;22.80;99.90
25973;DHT22;13765;51.166;4.466;2022-08-19T10:34:55;22.80;99.90
25973;DHT22;13765;51.166;4.466;2022-08-19T10:37:23;23.10;99.90
25973;DHT22;13765;51.166;4.466;2022-08-19T10:39:51;23.10;99.90
25973;DHT22;13765;51.166;4.466;2022-08-19T10:42:18;23.10;99.90
25973;DHT22;13765;51.166;4.466;2022-08-19T10:44:47;23.00;99.90
25973;DHT22;13765;51.166;4.466;2022-08-19T10:47:13;23.20;99.90
25973;DHT22;13765;51.166;4.466;2022-08-19T10:49:39;23.30;99.90
25973;DHT22;13765;51.166;4.466;2022-08-19T10:52:27;23.20;99.90
25973;DHT22;13765;51.166;4.466;2022-08-19T10:55:04;23.30;99.90
25973;DHT22;13765;51.166;4.466;2022-08-19T10:57:49;23.40;99.90
25973;DHT22;13765;51.166;4.466;2022-08-19T11:00:15;23.70;99.90
25973;DHT22;13765;51.166;4.466;2022-08-19T11:02:41;23.90;99.90
25973;DHT22;13765;51.166;4.466;2022-08-19T11:05:09;23.90;99.90
25973;DHT22;13765;51.166;4.466;2022-08-19T11:07:40;23.80;99.90
25973;DHT22;13765;51.166;4.466;2022-08-19T11:10:10;23.50;99.90
25973;DHT22;13765;51.166;4.466;2022-08-19T11:12:40;23.30;99.90
25973;DHT22;13765;51.166;4.466;2022-08-19T11:15:09;23.10;99.90
25973;DHT22;13765;51.166;4.466;2022-08-19T11:17:39;23.20;99.90
25973;DHT22;13765;51.166;4.466;2022-08-19T11:20:10;23.60;99.90
25973;DHT22;13765;51.166;4.466;2022-08-19T11:22:37;24.00;99.90
25973;DHT22;13765;51.166;4.466;2022-08-19T11:25:03;24.10;99.90
25973;DHT22;13765;51.166;4.466;2022-08-19T11:27:29;24.20;99.90
25973;DHT22;13765;51.166;4.466;2022-08-19T11:29:55;24.30;99.90
25973;DHT22;13765;51.166;4.466;2022-08-19T11:32:23;24.30;99.90
25973;DHT22;13765;51.166;4.466;2022-08-19T11:34:49;24.30;99.90
25973;DHT22;13765;51.166;4.466;2022-08-19T11:37:17;24.20;99.90
25973;DHT22;13765;51.166;4.466;2022-08-19T11:39:43;24.00;99.90
25973;DHT22;13765;51.166;4.466;2022-08-19T11:42:09;23.90;99.90
25973;DHT22;13765;51.166;4.466;2022-08-19T11:44:54;23.90;99.90
25973;DHT22;13765;51.166;4.466;2022-08-19T11:47:20;24.10;99.90
25973;DHT22;13765;51.166;4.466;2022-08-19T11:49:48;24.50;99.90
25973;DHT22;13765;51.166;4.466;2022-08-19T11:52:14;24.70;99.90
25973;DHT22;13765;51.166;4.466;2022-08-19T11:54:40;24.90;99.90
25973;DHT22;13765;51.166;4.466;2022-08-19T11:57:06;25.00;99.90
25973;DHT22;13765;51.166;4.466;2022-08-19T11:59:35;25.10;99.90
25973;DHT22;13765;51.166;4.466;2022-08-19T12:02:03;25.10;99.90
25973;DHT22;13765;51.166;4.466;2022-08-19T12:04:29;25.10;99.90
25973;DHT22;13765;51.166;4.466;2022-08-19T12:06:55;25.00;99.90
25973;DHT22;13765;51.166;4.466;2022-08-19T12:09:21;25.30;99.90
25973;DHT22;13765;51.166;4.466;2022-08-19T12:11:47;25.40;99.90
25973;DHT22;13765;51.166;4.466;2022-08-19T12:14:13;25.40;99.90
25973;DHT22;13765;51.166;4.466;2022-08-19T12:16:45;25.30;99.90
25973;DHT22;13765;51.166;4.466;2022-08-19T12:19:13;25.20;99.90
25973;DHT22;13765;51.166;4.466;2022-08-19T12:21:39;25.30;99.90
25973;DHT22;13765;51.166;4.466;2022-08-19T12:24:06;25.50;99.90
25973;DHT22;13765;51.166;4.466;2022-08-19T12:26:32;25.90;99.90
25973;DHT22;13765;51.166;4.466;2022-08-19T12:28:59;26.10;99.90
25973;DHT22;13765;51.166;4.466;2022-08-19T12:31:26;26.30;99.90
25973;DHT22;13765;51.166;4.466;2022-08-19T12:33:53;26.50;99.90
25973;DHT22;13765;51.166;4.466;2022-08-19T12:36:18;26.70;99.90
25973;DHT22;13765;51.166;4.466;2022-08-19T12:38:44;26.90;99.90
25973;DHT22;13765;51.166;4.466;2022-08-19T12:41:14;27.20;99.90
25973;DHT22;13765;51.166;4.466;2022-08-19T12:43:42;27.10;99.90
25973;DHT22;13765;51.166;4.466;2022-08-19T12:46:09;26.80;99.90
25973;DHT22;13765;51.166;4.466;2022-08-19T12:48:38;26.80;99.90
25973;DHT22;13765;51.166;4.466;2022-08-19T12:51:12;26.90;99.90
25973;DHT22;13765;51.166;4.466;2022-08-19T12:53:38;26.90;99.90
25973;DHT22;13765;51.166;4.466;2022-08-19T12:56:06;27.00;99.90
25973;DHT22;13765;51.166;4.466;2022-08-19T12:58:34;26.80;99.90
25973;DHT22;13765;51.166;4.466;2022-08-19T13:01:06;26.90;99.90
25973;DHT22;13765;51.166;4.466;2022-08-19T13:03:32;26.80;99.90
25973;DHT22;13765;51.166;4.466;2022-08-19T13:05:58;26.50;99.90
25973;DHT22;13765;51.166;4.466;2022-08-19T13:08:27;26.30;99.90
25973;DHT22;13765;51.166;4.466;2022-08-19T13:10:53;26.30;99.90
25973;DHT22;13765;51.166;4.466;2022-08-19T13:13:18;26.30;99.90
25973;DHT22;13765;51.166;4.466;2022-08-19T13:15:44;26.30;99.90
25973;DHT22;13765;51.166;4.466;2022-08-19T13:18:11;26.40;99.90
25973;DHT22;13765;51.166;4.466;2022-08-19T13:20:38;26.30;99.90
25973;DHT22;13765;51.166;4.466;2022-08-19T13:23:06;26.10;99.90
25973;DHT22;13765;51.166;4.466;2022-08-19T13:25:35;26.00;99.90
25973;DHT22;13765;51.166;4.466;2022-08-19T13:28:04;26.10;99.90
25973;DHT22;13765;51.166;4.466;2022-08-19T13:30:32;26.20;99.90
25973;DHT22;13765;51.166;4.466;2022-08-19T13:33:18;26.50;99.90
25973;DHT22;13765;51.166;4.466;2022-08-19T13:35:50;26.90;99.90
25973;DHT22;13765;51.166;4.466;2022-08-19T13:38:22;27.60;99.90
25973;DHT22;13765;51.166;4.466;2022-08-19T13:40:52;28.20;99.90
25973;DHT22;13765;51.166;4.466;2022-08-19T13:43:22;28.40;99.90
25973;DHT22;13765;51.166;4.466;2022-08-19T13:45:53;28.30;99.90
25973;DHT22;13765;51.166;4.466;2022-08-19T13:48:25;28.40;99.90
25973;DHT22;13765;51.166;4.466;2022-08-19T13:50:51;28.60;99.90
25973;DHT22;13765;51.166;4.466;2022-08-19T13:53:19;28.60;99.90
25973;DHT22;13765;51.166;4.466;2022-08-19T13:55:45;28.70;99.90
25973;DHT22;13765;51.166;4.466;2022-08-19T13:58:20;28.70;99.90
25973;DHT22;13765;51.166;4.466;2022-08-19T14:00:46;28.80;99.90
25973;DHT22;13765;51.166;4.466;2022-08-19T14:03:12;28.70;99.90
25973;DHT22;13765;51.166;4.466;2022-08-19T14:05:39;28.50;99.90
25973;DHT22;13765;51.166;4.466;2022-08-19T14:08:05;28.20;99.90
25973;DHT22;13765;51.166;4.466;2022-08-19T14:10:31;28.00;99.90
25973;DHT22;13765;51.166;4.466;2022-08-19T14:13:03;27.80;99.90
25973;DHT22;13765;51.166;4.466;2022-08-19T14:15:30;27.70;99.90
25973;DHT22;13765;51.166;4.466;2022-08-19T14:17:56;27.50;99.90
25973;DHT22;13765;51.166;4.466;2022-08-19T14:20:25;27.50;99.90
25973;DHT22;13765;51.166;4.466;2022-08-19T14:22:51;27.10;99.90
25973;DHT22;13765;51.166;4.466;2022-08-19T14:25:22;26.90;99.90
25973;DHT22;13765;51.166;4.466;2022-08-19T14:27:48;26.60;99.90
25973;DHT22;13765;51.166;4.466;2022-08-19T14:30:17;26.30;99.90
25973;DHT22;13765;51.166;4.466;2022-08-19T14:32:46;26.60;99.90
25973;DHT22;13765;51.166;4.466;2022-08-19T14:35:15;26.60;99.90
25973;DHT22;13765;51.166;4.466;2022-08-19T14:37:43;26.50;99.90
25973;DHT22;13765;51.166;4.466;2022-08-19T14:40:11;26.40;99.90
25973;DHT22;13765;51.166;4.466;2022-08-19T14:42:40;26.40;99.90
25973;DHT22;13765;51.166;4.466;2022-08-19T14:45:07;26.30;99.90
25973;DHT22;13765;51.166;4.466;2022-08-19T14:47:33;26.20;99.90
25973;DHT22;13765;51.166;4.466;2022-08-19T14:49:59;26.00;99.90
25973;DHT22;13765;51.166;4.466;2022-08-19T14:52:25;25.80;99.90
25973;DHT22;13765;51.166;4.466;2022-08-19T14:54:51;25.60;99.90
25973;DHT22;13765;51.166;4.466;2022-08-19T14:57:19;25.10;99.90
25973;DHT22;13765;51.166;4.466;2022-08-19T14:59:45;24.70;99.90
25973;DHT22;13765;51.166;4.466;2022-08-19T15:02:12;24.20;99.90
25973;DHT22;13765;51.166;4.466;2022-08-19T15:04:37;24.10;99.90
25973;DHT22;13765;51.166;4.466;2022-08-19T15:07:04;23.70;99.90
25973;DHT22;13765;51.166;4.466;2022-08-19T15:09:35;23.40;99.90
25973;DHT22;13765;51.166;4.466;2022-08-19T15:12:04;23.20;99.90
25973;DHT22;13765;51.166;4.466;2022-08-19T15:14:30;22.90;99.90
25973;DHT22;13765;51.166;4.466;2022-08-19T15:17:03;22.80;99.90
25973;DHT22;13765;51.166;4.466;2022-08-19T15:19:30;22.60;99.90
25973;DHT22;13765;51.166;4.466;2022-08-19T15:21:59;22.70;99.90
25973;DHT22;13765;51.166;4.466;2022-08-19T15:24:27;22.90;99.90
25973;DHT22;13765;51.166;4.466;2022-08-19T15:26:53;23.10;99.90
25973;DHT22;13765;51.166;4.466;2022-08-19T15:29:21;23.10;99.90
25973;DHT22;13765;51.166;4.466;2022-08-19T15:31:53;23.20;99.90
25973;DHT22;13765;51.166;4.466;2022-08-19T15:34:21;23.50;99.90
25973;DHT22;13765;51.166;4.466;2022-08-19T15:36:48;23.60;99.90
25973;DHT22;13765;51.166;4.466;2022-08-19T15:39:14;23.90;99.90
25973;DHT22;13765;51.166;4.466;2022-08-19T15:41:41;24.10;99.90
25973;DHT22;13765;51.166;4.466;2022-08-19T15:44:14;24.60;99.90
25973;DHT22;13765;51.166;4.466;2022-08-19T15:46:42;25.20;99.90
25973;DHT22;13765;51.166;4.466;2022-08-19T15:49:10;25.50;99.90
25973;DHT22;13765;51.166;4.466;2022-08-19T15:51:37;25.70;99.90
25973;DHT22;13765;51.166;4.466;2022-08-19T15:54:05;25.70;99.90